sensor_id;sensor_type;location;lat;lon;timestamp;P1;durP1;ratioP1;P2;durP2;ratioP2
3995;SDS011;2012;49.794;9.722;2023-10-31T00:01:50;1.30;;;0.93;;
3995;SDS011;2012;49.794;9.722;2023-10-31T00:04:17;2.70;;;0.80;;
3995;SDS011;2012;49.794;9.722;2023-10-31T00:06:44;3.50;;;0.80;;
3995;SDS011;2012;49.794;9.722;2023-10-31T00:09:11;3.37;;;0.70;;
3995;SDS011;2012;49.794;9.722;2023-10-31T00:11:38;1.83;;;0.90;;
3995;SDS011;2012;49.794;9.722;2023-10-31T00:14:07;2.30;;;1.00;;
3995;SDS011;2012;49.794;9.722;2023-10-31T00:16:54;1.37;;;0.77;;
3995;SDS011;2012;49.794;9.722;2023-10-31T00:19:21;2.80;;;0.80;;
3995;SDS011;2012;49.794;9.722;2023-10-31T00:21:48;1.07;;;0.80;;
3995;SDS011;2012;49.794;9.722;2023-10-31T00:24:15;1.10;;;0.80;;
3995;SDS011;2012;49.794;9.722;2023-10-31T00:26:42;2.53;;;0.70;;
3995;SDS011;2012;49.794;9.722;2023-10-31T00:29:09;0.80;;;0.70;;
3995;SDS011;2012;49.794;9.722;2023-10-31T00:31:36;2.00;;;0.67;;
3995;SDS011;2012;49.794;9.722;2023-10-31T00:34:07;2.80;;;0.70;;
3995;SDS011;2012;49.794;9.722;2023-10-31T00:36:35;1.37;;;0.60;;
3995;SDS011;2012;49.794;9.722;2023-10-31T00:39:01;3.63;;;0.70;;
3995;SDS011;2012;49.794;9.722;2023-10-31T00:41:28;0.97;;;0.70;;
3995;SDS011;2012;49.794;9.722;2023-10-31T00:43:55;0.80;;;0.60;;
3995;SDS011;2012;49.794;9.722;2023-10-31T00:46:22;1.73;;;0.87;;
3995;SDS011;2012;49.794;9.722;2023-10-31T00:48:49;0.90;;;0.60;;
3995;SDS011;2012;49.794;9.722;2023-10-31T00:51:16;0.90;;;0.60;;
3995;SDS011;2012;49.794;9.722;2023-10-31T00:53:43;0.97;;;0.80;;
3995;SDS011;2012;49.794;9.722;2023-10-31T00:56:10;4.80;;;1.00;;
3995;SDS011;2012;49.794;9.722;2023-10-31T00:58:37;1.17;;;0.90;;
3995;SDS011;2012;49.794;9.722;2023-10-31T01:01:06;2.40;;;1.80;;
3995;SDS011;2012;49.794;9.722;2023-10-31T01:03:32;3.77;;;1.00;;
3995;SDS011;2012;49.794;9.722;2023-10-31T01:06:00;0.80;;;0.80;;
3995;SDS011;2012;49.794;9.722;2023-10-31T01:08:27;3.13;;;0.90;;
3995;SDS011;2012;49.794;9.722;2023-10-31T01:10:54;7.23;;;1.10;;
3995;SDS011;2012;49.794;9.722;2023-10-31T01:13:21;2.67;;;0.80;;
3995;SDS011;2012;49.794;9.722;2023-10-31T01:15:48;0.80;;;0.80;;
3995;SDS011;2012;49.794;9.722;2023-10-31T01:18:15;0.80;;;0.80;;
3995;SDS011;2012;49.794;9.722;2023-10-31T01:20:42;3.53;;;0.80;;
3995;SDS011;2012;49.794;9.722;2023-10-31T01:23:09;0.70;;;0.70;;
3995;SDS011;2012;49.794;9.722;2023-10-31T01:25:35;2.60;;;0.90;;
3995;SDS011;2012;49.794;9.722;2023-10-31T01:28:03;2.50;;;0.80;;
3995;SDS011;2012;49.794;9.722;2023-10-31T01:30:30;1.40;;;0.90;;
3995;SDS011;2012;49.794;9.722;2023-10-31T01:32:56;1.80;;;1.37;;
3995;SDS011;2012;49.794;9.722;2023-10-31T01:35:23;0.70;;;0.70;;
3995;SDS011;2012;49.794;9.722;2023-10-31T01:37:50;0.90;;;0.90;;
3995;SDS011;2012;49.794;9.722;2023-10-31T01:40:17;2.43;;;2.23;;
3995;SDS011;2012;49.794;9.722;2023-10-31T01:42:44;1.23;;;0.80;;
3995;SDS011;2012;49.794;9.722;2023-10-31T01:45:12;2.80;;;1.30;;
3995;SDS011;2012;49.794;9.722;2023-10-31T01:47:39;7.80;;;4.07;;
3995;SDS011;2012;49.794;9.722;2023-10-31T01:50:06;1.77;;;1.50;;
3995;SDS011;2012;49.794;9.722;2023-10-31T01:52:36;1.10;;;0.87;;
3995;SDS011;2012;49.794;9.722;2023-10-31T01:55:03;1.20;;;1.10;;
3995;SDS011;2012;49.794;9.722;2023-10-31T01:57:31;1.57;;;0.73;;
3995;SDS011;2012;49.794;9.722;2023-10-31T01:59:58;0.90;;;0.90;;
3995;SDS011;2012;49.794;9.722;2023-10-31T02:02:25;1.30;;;0.80;;
3995;SDS011;2012;49.794;9.722;2023-10-31T02:04:54;2.17;;;0.90;;
3995;SDS011;2012;49.794;9.722;2023-10-31T02:07:22;0.80;;;0.80;;
3995;SDS011;2012;49.794;9.722;2023-10-31T02:09:48;0.70;;;0.70;;
3995;SDS011;2012;49.794;9.722;2023-10-31T02:12:34;2.77;;;0.70;;
3995;SDS011;2012;49.794;9.722;2023-10-31T02:15:02;1.43;;;0.90;;
3995;SDS011;2012;49.794;9.722;2023-10-31T02:17:30;1.43;;;0.70;;
3995;SDS011;2012;49.794;9.722;2023-10-31T02:19:57;5.07;;;1.00;;
3995;SDS011;2012;49.794;9.722;2023-10-31T02:22:24;3.13;;;0.80;;
3995;SDS011;2012;49.794;9.722;2023-10-31T02:24:51;1.10;;;0.73;;
3995;SDS011;2012;49.794;9.722;2023-10-31T02:27:18;1.63;;;0.90;;
3995;SDS011;2012;49.794;9.722;2023-10-31T02:29:45;1.37;;;0.77;;
3995;SDS011;2012;49.794;9.722;2023-10-31T02:32:12;0.93;;;0.70;;
3995;SDS011;2012;49.794;9.722;2023-10-31T02:34:39;1.47;;;0.80;;
3995;SDS011;2012;49.794;9.722;2023-10-31T02:37:06;3.87;;;0.80;;
3995;SDS011;2012;49.794;9.722;2023-10-31T02:39:33;0.70;;;0.60;;
3995;SDS011;2012;49.794;9.722;2023-10-31T02:42:00;1.60;;;1.13;;
3995;SDS011;2012;49.794;9.722;2023-10-31T02:44:27;4.63;;;2.17;;
3995;SDS011;2012;49.794;9.722;2023-10-31T02:46:54;3.33;;;2.23;;
3995;SDS011;2012;49.794;9.722;2023-10-31T02:49:21;1.57;;;1.17;;
3995;SDS011;2012;49.794;9.722;2023-10-31T02:51:48;3.23;;;1.40;;
3995;SDS011;2012;49.794;9.722;2023-10-31T02:54:15;1.30;;;1.20;;
3995;SDS011;2012;49.794;9.722;2023-10-31T02:56:42;3.33;;;1.77;;
3995;SDS011;2012;49.794;9.722;2023-10-31T02:59:09;3.20;;;1.60;;
3995;SDS011;2012;49.794;9.722;2023-10-31T03:01:36;3.80;;;0.70;;
3995;SDS011;2012;49.794;9.722;2023-10-31T03:04:04;3.77;;;0.77;;
3995;SDS011;2012;49.794;9.722;2023-10-31T03:06:31;0.70;;;0.70;;
3995;SDS011;2012;49.794;9.722;2023-10-31T03:08:58;2.20;;;0.80;;
3995;SDS011;2012;49.794;9.722;2023-10-31T03:11:25;1.17;;;0.70;;
3995;SDS011;2012;49.794;9.722;2023-10-31T03:13:53;1.33;;;0.80;;
3995;SDS011;2012;49.794;9.722;2023-10-31T03:16:20;4.93;;;0.90;;
3995;SDS011;2012;49.794;9.722;2023-10-31T03:18:49;7.57;;;0.73;;
3995;SDS011;2012;49.794;9.722;2023-10-31T03:21:16;1.23;;;0.90;;
3995;SDS011;2012;49.794;9.722;2023-10-31T03:23:47;1.83;;;0.63;;
3995;SDS011;2012;49.794;9.722;2023-10-31T03:26:15;1.10;;;0.70;;
3995;SDS011;2012;49.794;9.722;2023-10-31T03:28:43;0.70;;;0.70;;
3995;SDS011;2012;49.794;9.722;2023-10-31T03:31:11;0.80;;;0.70;;
3995;SDS011;2012;49.794;9.722;2023-10-31T03:33:39;6.00;;;0.80;;
3995;SDS011;2012;49.794;9.722;2023-10-31T03:36:09;0.93;;;0.80;;
3995;SDS011;2012;49.794;9.722;2023-10-31T03:38:37;1.23;;;0.70;;
3995;SDS011;2012;49.794;9.722;2023-10-31T03:41:05;2.00;;;0.70;;
3995;SDS011;2012;49.794;9.722;2023-10-31T03:43:32;0.90;;;0.70;;
3995;SDS011;2012;49.794;9.722;2023-10-31T03:45:59;0.80;;;0.80;;
3995;SDS011;2012;49.794;9.722;2023-10-31T03:48:26;2.20;;;0.80;;
3995;SDS011;2012;49.794;9.722;2023-10-31T03:50:53;1.23;;;0.60;;
3995;SDS011;2012;49.794;9.722;2023-10-31T03:53:20;1.40;;;0.73;;
3995;SDS011;2012;49.794;9.722;2023-10-31T03:55:48;3.00;;;0.70;;
3995;SDS011;2012;49.794;9.722;2023-10-31T03:58:14;4.00;;;0.80;;
3995;SDS011;2012;49.794;9.722;2023-10-31T04:00:41;1.20;;;0.90;;
3995;SDS011;2012;49.794;9.722;2023-10-31T04:03:09;2.23;;;0.80;;
3995;SDS011;2012;49.794;9.722;2023-10-31T04:05:36;1.47;;;0.87;;
3995;SDS011;2012;49.794;9.722;2023-10-31T04:08:03;3.60;;;1.00;;
3995;SDS011;2012;49.794;9.722;2023-10-31T04:10:31;1.10;;;0.70;;
3995;SDS011;2012;49.794;9.722;2023-10-31T04:12:58;0.80;;;0.80;;
3995;SDS011;2012;49.794;9.722;2023-10-31T04:15:25;1.30;;;0.80;;
3995;SDS011;2012;49.794;9.722;2023-10-31T04:17:51;2.90;;;0.93;;
3995;SDS011;2012;49.794;9.722;2023-10-31T04:20:18;1.87;;;0.80;;
3995;SDS011;2012;49.794;9.722;2023-10-31T04:22:46;6.00;;;0.80;;
3995;SDS011;2012;49.794;9.722;2023-10-31T04:25:13;1.10;;;1.00;;
3995;SDS011;2012;49.794;9.722;2023-10-31T04:27:40;0.73;;;0.73;;
3995;SDS011;2012;49.794;9.722;2023-10-31T04:30:07;1.10;;;0.90;;
3995;SDS011;2012;49.794;9.722;2023-10-31T04:32:37;3.07;;;0.90;;
3995;SDS011;2012;49.794;9.722;2023-10-31T04:35:04;3.27;;;0.70;;
3995;SDS011;2012;49.794;9.722;2023-10-31T04:37:32;1.23;;;0.70;;
3995;SDS011;2012;49.794;9.722;2023-10-31T04:40:00;3.23;;;0.60;;
3995;SDS011;2012;49.794;9.722;2023-10-31T04:42:27;2.80;;;0.80;;
3995;SDS011;2012;49.794;9.722;2023-10-31T04:44:54;4.30;;;0.80;;
3995;SDS011;2012;49.794;9.722;2023-10-31T04:47:21;1.20;;;0.73;;
3995;SDS011;2012;49.794;9.722;2023-10-31T04:49:49;2.40;;;0.80;;
3995;SDS011;2012;49.794;9.722;2023-10-31T04:52:16;0.60;;;0.50;;
3995;SDS011;2012;49.794;9.722;2023-10-31T04:54:43;2.87;;;0.60;;
3995;SDS011;2012;49.794;9.722;2023-10-31T04:57:11;1.40;;;0.70;;
3995;SDS011;2012;49.794;9.722;2023-10-31T04:59:37;2.40;;;0.80;;
3995;SDS011;2012;49.794;9.722;2023-10-31T05:02:04;0.90;;;0.70;;
3995;SDS011;2012;49.794;9.722;2023-10-31T05:04:31;1.47;;;0.80;;
3995;SDS011;2012;49.794;9.722;2023-10-31T05:06:59;0.80;;;0.80;;
3995;SDS011;2012;49.794;9.722;2023-10-31T05:09:26;2.60;;;0.80;;
3995;SDS011;2012;49.794;9.722;2023-10-31T05:11:53;1.33;;;0.70;;
3995;SDS011;2012;49.794;9.722;2023-10-31T05:14:20;1.87;;;0.80;;
3995;SDS011;2012;49.794;9.722;2023-10-31T05:16:47;5.00;;;0.90;;
3995;SDS011;2012;49.794;9.722;2023-10-31T05:19:14;4.63;;;1.00;;
3995;SDS011;2012;49.794;9.722;2023-10-31T05:21:41;0.70;;;0.70;;
3995;SDS011;2012;49.794;9.722;2023-10-31T05:24:08;1.80;;;0.70;;
3995;SDS011;2012;49.794;9.722;2023-10-31T05:26:35;1.57;;;0.80;;
3995;SDS011;2012;49.794;9.722;2023-10-31T05:29:01;1.50;;;0.73;;
3995;SDS011;2012;49.794;9.722;2023-10-31T05:31:28;11.73;;;1.50;;
3995;SDS011;2012;49.794;9.722;2023-10-31T05:33:56;13.93;;;5.40;;
3995;SDS011;2012;49.794;9.722;2023-10-31T05:36:23;21.43;;;8.57;;
3995;SDS011;2012;49.794;9.722;2023-10-31T05:38:51;9.20;;;3.40;;
3995;SDS011;2012;49.794;9.722;2023-10-31T05:41:18;3.80;;;2.37;;
3995;SDS011;2012;49.794;9.722;2023-10-31T05:43:45;9.80;;;4.33;;
3995;SDS011;2012;49.794;9.722;2023-10-31T05:46:12;9.87;;;3.00;;
3995;SDS011;2012;49.794;9.722;2023-10-31T05:48:42;3.87;;;1.50;;
3995;SDS011;2012;49.794;9.722;2023-10-31T05:51:13;14.20;;;4.47;;
3995;SDS011;2012;49.794;9.722;2023-10-31T05:53:41;12.70;;;4.60;;
3995;SDS011;2012;49.794;9.722;2023-10-31T05:56:11;6.30;;;2.97;;
3995;SDS011;2012;49.794;9.722;2023-10-31T05:58:41;8.23;;;2.77;;
3995;SDS011;2012;49.794;9.722;2023-10-31T06:01:09;2.40;;;1.67;;
3995;SDS011;2012;49.794;9.722;2023-10-31T06:03:36;2.00;;;1.27;;
3995;SDS011;2012;49.794;9.722;2023-10-31T06:06:03;1.20;;;0.97;;
3995;SDS011;2012;49.794;9.722;2023-10-31T06:08:31;2.60;;;1.30;;
3995;SDS011;2012;49.794;9.722;2023-10-31T06:10:58;1.43;;;0.90;;
3995;SDS011;2012;49.794;9.722;2023-10-31T06:13:25;0.80;;;0.80;;
3995;SDS011;2012;49.794;9.722;2023-10-31T06:15:54;3.00;;;1.00;;
3995;SDS011;2012;49.794;9.722;2023-10-31T06:18:26;1.80;;;0.80;;
3995;SDS011;2012;49.794;9.722;2023-10-31T06:20:54;2.50;;;1.00;;
3995;SDS011;2012;49.794;9.722;2023-10-31T06:23:20;3.00;;;0.80;;
3995;SDS011;2012;49.794;9.722;2023-10-31T06:25:47;1.90;;;0.80;;
3995;SDS011;2012;49.794;9.722;2023-10-31T06:28:14;0.83;;;0.73;;
3995;SDS011;2012;49.794;9.722;2023-10-31T06:30:41;1.73;;;0.70;;
3995;SDS011;2012;49.794;9.722;2023-10-31T06:33:09;1.70;;;0.73;;
3995;SDS011;2012;49.794;9.722;2023-10-31T06:35:37;0.80;;;0.80;;
3995;SDS011;2012;49.794;9.722;2023-10-31T06:38:04;0.87;;;0.80;;
3995;SDS011;2012;49.794;9.722;2023-10-31T06:40:31;1.00;;;0.80;;
3995;SDS011;2012;49.794;9.722;2023-10-31T06:42:58;2.67;;;0.77;;
3995;SDS011;2012;49.794;9.722;2023-10-31T06:45:25;1.00;;;0.80;;
3995;SDS011;2012;49.794;9.722;2023-10-31T06:47:52;1.10;;;0.90;;
3995;SDS011;2012;49.794;9.722;2023-10-31T06:50:20;1.57;;;0.70;;
3995;SDS011;2012;49.794;9.722;2023-10-31T06:52:47;1.47;;;0.80;;
3995;SDS011;2012;49.794;9.722;2023-10-31T06:55:14;1.50;;;0.90;;
3995;SDS011;2012;49.794;9.722;2023-10-31T06:57:41;3.63;;;0.80;;
3995;SDS011;2012;49.794;9.722;2023-10-31T07:00:10;2.97;;;0.90;;
3995;SDS011;2012;49.794;9.722;2023-10-31T07:02:38;1.47;;;0.87;;
3995;SDS011;2012;49.794;9.722;2023-10-31T07:05:06;1.23;;;1.13;;
3995;SDS011;2012;49.794;9.722;2023-10-31T07:07:33;2.80;;;1.17;;
3995;SDS011;2012;49.794;9.722;2023-10-31T07:10:00;0.90;;;0.80;;
3995;SDS011;2012;49.794;9.722;2023-10-31T07:12:28;1.10;;;0.90;;
3995;SDS011;2012;49.794;9.722;2023-10-31T07:14:55;16.13;;;0.90;;
3995;SDS011;2012;49.794;9.722;2023-10-31T07:17:25;3.03;;;1.00;;
3995;SDS011;2012;49.794;9.722;2023-10-31T07:19:52;1.03;;;0.80;;
3995;SDS011;2012;49.794;9.722;2023-10-31T07:22:19;2.23;;;0.87;;
3995;SDS011;2012;49.794;9.722;2023-10-31T07:24:48;0.70;;;0.70;;
3995;SDS011;2012;49.794;9.722;2023-10-31T07:27:15;1.63;;;1.27;;
3995;SDS011;2012;49.794;9.722;2023-10-31T07:29:42;2.20;;;1.90;;
3995;SDS011;2012;49.794;9.722;2023-10-31T07:32:09;2.70;;;1.70;;
3995;SDS011;2012;49.794;9.722;2023-10-31T07:34:39;2.30;;;1.30;;
3995;SDS011;2012;49.794;9.722;2023-10-31T07:37:07;2.03;;;0.80;;
3995;SDS011;2012;49.794;9.722;2023-10-31T07:39:34;5.70;;;1.33;;
3995;SDS011;2012;49.794;9.722;2023-10-31T07:42:01;1.70;;;0.90;;
3995;SDS011;2012;49.794;9.722;2023-10-31T07:44:28;1.43;;;1.00;;
3995;SDS011;2012;49.794;9.722;2023-10-31T07:46:56;1.20;;;0.80;;
3995;SDS011;2012;49.794;9.722;2023-10-31T07:49:23;1.20;;;1.10;;
3995;SDS011;2012;49.794;9.722;2023-10-31T07:51:50;0.80;;;0.80;;
3995;SDS011;2012;49.794;9.722;2023-10-31T07:54:17;3.00;;;0.93;;
3995;SDS011;2012;49.794;9.722;2023-10-31T07:56:45;1.00;;;0.90;;
3995;SDS011;2012;49.794;9.722;2023-10-31T07:59:12;2.50;;;1.07;;
3995;SDS011;2012;49.794;9.722;2023-10-31T08:01:39;1.73;;;0.90;;
3995;SDS011;2012;49.794;9.722;2023-10-31T08:04:06;1.40;;;0.70;;
3995;SDS011;2012;49.794;9.722;2023-10-31T08:06:33;1.57;;;1.00;;
3995;SDS011;2012;49.794;9.722;2023-10-31T08:09:00;2.93;;;1.53;;
3995;SDS011;2012;49.794;9.722;2023-10-31T08:11:27;9.20;;;1.93;;
3995;SDS011;2012;49.794;9.722;2023-10-31T08:13:53;6.23;;;1.50;;
3995;SDS011;2012;49.794;9.722;2023-10-31T08:16:20;1.20;;;1.10;;
3995;SDS011;2012;49.794;9.722;2023-10-31T08:18:48;2.73;;;1.10;;
3995;SDS011;2012;49.794;9.722;2023-10-31T08:21:15;1.23;;;1.10;;
3995;SDS011;2012;49.794;9.722;2023-10-31T08:23:42;2.53;;;1.20;;
3995;SDS011;2012;49.794;9.722;2023-10-31T08:26:11;1.20;;;0.87;;
3995;SDS011;2012;49.794;9.722;2023-10-31T08:28:39;1.07;;;0.90;;
3995;SDS011;2012;49.794;9.722;2023-10-31T08:31:07;3.40;;;1.00;;
3995;SDS011;2012;49.794;9.722;2023-10-31T08:33:34;1.57;;;0.90;;
3995;SDS011;2012;49.794;9.722;2023-10-31T08:36:01;0.70;;;0.70;;
3995;SDS011;2012;49.794;9.722;2023-10-31T08:38:28;5.10;;;0.93;;
3995;SDS011;2012;49.794;9.722;2023-10-31T08:40:58;1.90;;;1.03;;
3995;SDS011;2012;49.794;9.722;2023-10-31T08:43:26;1.00;;;0.90;;
3995;SDS011;2012;49.794;9.722;2023-10-31T08:45:53;3.53;;;1.00;;
3995;SDS011;2012;49.794;9.722;2023-10-31T08:48:20;2.77;;;0.90;;
3995;SDS011;2012;49.794;9.722;2023-10-31T08:50:47;1.67;;;1.20;;
3995;SDS011;2012;49.794;9.722;2023-10-31T08:53:14;0.80;;;0.80;;
3995;SDS011;2012;49.794;9.722;2023-10-31T08:55:42;1.00;;;0.90;;
3995;SDS011;2012;49.794;9.722;2023-10-31T08:58:12;0.80;;;0.80;;
3995;SDS011;2012;49.794;9.722;2023-10-31T09:00:40;1.37;;;1.00;;
3995;SDS011;2012;49.794;9.722;2023-10-31T09:03:08;3.93;;;1.00;;
3995;SDS011;2012;49.794;9.722;2023-10-31T09:05:39;2.70;;;1.00;;
3995;SDS011;2012;49.794;9.722;2023-10-31T09:08:06;1.50;;;0.97;;
3995;SDS011;2012;49.794;9.722;2023-10-31T09:10:35;3.17;;;1.07;;
3995;SDS011;2012;49.794;9.722;2023-10-31T09:13:04;1.27;;;0.90;;
3995;SDS011;2012;49.794;9.722;2023-10-31T09:18:21;0.80;;;0.70;;
3995;SDS011;2012;49.794;9.722;2023-10-31T09:20:48;2.40;;;1.10;;
3995;SDS011;2012;49.794;9.722;2023-10-31T09:23:15;1.00;;;0.90;;
3995;SDS011;2012;49.794;9.722;2023-10-31T09:25:43;1.00;;;0.90;;
3995;SDS011;2012;49.794;9.722;2023-10-31T09:28:10;3.40;;;1.00;;
3995;SDS011;2012;49.794;9.722;2023-10-31T09:30:37;1.00;;;0.80;;
3995;SDS011;2012;49.794;9.722;2023-10-31T09:33:04;29.37;;;1.90;;
3995;SDS011;2012;49.794;9.722;2023-10-31T09:35:31;2.13;;;0.90;;
3995;SDS011;2012;49.794;9.722;2023-10-31T09:37:58;2.03;;;1.20;;
3995;SDS011;2012;49.794;9.722;2023-10-31T09:40:25;1.80;;;1.00;;
3995;SDS011;2012;49.794;9.722;2023-10-31T09:42:52;1.63;;;0.80;;
3995;SDS011;2012;49.794;9.722;2023-10-31T09:45:19;1.10;;;0.80;;
3995;SDS011;2012;49.794;9.722;2023-10-31T09:47:46;1.97;;;0.90;;
3995;SDS011;2012;49.794;9.722;2023-10-31T09:50:13;2.37;;;1.00;;
3995;SDS011;2012;49.794;9.722;2023-10-31T09:52:40;3.60;;;0.90;;
3995;SDS011;2012;49.794;9.722;2023-10-31T09:55:07;2.20;;;0.97;;
3995;SDS011;2012;49.794;9.722;2023-10-31T09:57:35;2.40;;;1.00;;
3995;SDS011;2012;49.794;9.722;2023-10-31T10:00:01;2.63;;;0.97;;
3995;SDS011;2012;49.794;9.722;2023-10-31T10:02:35;1.60;;;1.00;;
3995;SDS011;2012;49.794;9.722;2023-10-31T10:05:02;2.10;;;0.90;;
3995;SDS011;2012;49.794;9.722;2023-10-31T10:07:29;1.40;;;0.90;;
3995;SDS011;2012;49.794;9.722;2023-10-31T10:09:56;3.23;;;0.93;;
3995;SDS011;2012;49.794;9.722;2023-10-31T10:12:23;1.70;;;0.93;;
3995;SDS011;2012;49.794;9.722;2023-10-31T10:14:50;2.80;;;1.00;;
3995;SDS011;2012;49.794;9.722;2023-10-31T10:17:22;2.13;;;1.03;;
3995;SDS011;2012;49.794;9.722;2023-10-31T10:22:41;4.17;;;1.10;;
3995;SDS011;2012;49.794;9.722;2023-10-31T10:25:10;4.43;;;1.10;;
3995;SDS011;2012;49.794;9.722;2023-10-31T10:27:42;1.27;;;1.00;;
3995;SDS011;2012;49.794;9.722;2023-10-31T10:30:09;3.37;;;1.27;;
3995;SDS011;2012;49.794;9.722;2023-10-31T10:32:37;2.03;;;1.17;;
3995;SDS011;2012;49.794;9.722;2023-10-31T10:35:06;7.13;;;3.47;;
3995;SDS011;2012;49.794;9.722;2023-10-31T10:37:36;2.37;;;1.30;;
3995;SDS011;2012;49.794;9.722;2023-10-31T10:40:05;2.57;;;1.73;;
3995;SDS011;2012;49.794;9.722;2023-10-31T10:42:55;3.37;;;1.43;;
3995;SDS011;2012;49.794;9.722;2023-10-31T10:45:24;5.67;;;2.93;;
3995;SDS011;2012;49.794;9.722;2023-10-31T10:47:51;11.47;;;1.30;;
3995;SDS011;2012;49.794;9.722;2023-10-31T10:50:22;9.93;;;3.67;;
3995;SDS011;2012;49.794;9.722;2023-10-31T10:53:00;7.53;;;2.00;;
3995;SDS011;2012;49.794;9.722;2023-10-31T10:55:39;2.70;;;1.07;;
3995;SDS011;2012;49.794;9.722;2023-10-31T10:58:21;3.77;;;1.13;;
3995;SDS011;2012;49.794;9.722;2023-10-31T11:00:58;1.10;;;1.00;;
3995;SDS011;2012;49.794;9.722;2023-10-31T11:03:26;1.43;;;0.90;;
3995;SDS011;2012;49.794;9.722;2023-10-31T11:05:54;2.40;;;1.13;;
3995;SDS011;2012;49.794;9.722;2023-10-31T11:08:23;3.10;;;0.90;;
3995;SDS011;2012;49.794;9.722;2023-10-31T11:10:51;1.20;;;0.87;;
3995;SDS011;2012;49.794;9.722;2023-10-31T11:13:20;1.57;;;0.80;;
3995;SDS011;2012;49.794;9.722;2023-10-31T11:15:49;2.20;;;0.90;;
3995;SDS011;2012;49.794;9.722;2023-10-31T11:18:22;1.97;;;0.83;;
3995;SDS011;2012;49.794;9.722;2023-10-31T11:20:49;2.53;;;0.87;;
3995;SDS011;2012;49.794;9.722;2023-10-31T11:23:16;1.93;;;0.80;;
3995;SDS011;2012;49.794;9.722;2023-10-31T11:25:44;1.80;;;1.00;;
3995;SDS011;2012;49.794;9.722;2023-10-31T11:28:12;3.60;;;1.17;;
3995;SDS011;2012;49.794;9.722;2023-10-31T11:30:41;4.80;;;1.60;;
3995;SDS011;2012;49.794;9.722;2023-10-31T11:33:13;3.00;;;1.00;;
3995;SDS011;2012;49.794;9.722;2023-10-31T11:35:41;4.00;;;1.00;;
3995;SDS011;2012;49.794;9.722;2023-10-31T11:38:11;2.00;;;1.20;;
3995;SDS011;2012;49.794;9.722;2023-10-31T11:43:14;4.03;;;1.60;;
3995;SDS011;2012;49.794;9.722;2023-10-31T11:45:42;3.20;;;1.10;;
3995;SDS011;2012;49.794;9.722;2023-10-31T11:48:15;6.10;;;2.73;;
3995;SDS011;2012;49.794;9.722;2023-10-31T11:50:42;5.10;;;2.57;;
3995;SDS011;2012;49.794;9.722;2023-10-31T11:53:13;4.07;;;1.83;;
3995;SDS011;2012;49.794;9.722;2023-10-31T11:55:44;6.97;;;2.57;;
3995;SDS011;2012;49.794;9.722;2023-10-31T12:00:51;1.97;;;1.30;;
3995;SDS011;2012;49.794;9.722;2023-10-31T12:03:26;7.10;;;2.37;;
3995;SDS011;2012;49.794;9.722;2023-10-31T12:05:54;3.73;;;1.60;;
3995;SDS011;2012;49.794;9.722;2023-10-31T12:08:24;11.23;;;2.90;;
3995;SDS011;2012;49.794;9.722;2023-10-31T12:10:52;10.83;;;2.10;;
3995;SDS011;2012;49.794;9.722;2023-10-31T12:13:19;2.63;;;1.00;;
3995;SDS011;2012;49.794;9.722;2023-10-31T12:15:51;3.13;;;1.40;;
3995;SDS011;2012;49.794;9.722;2023-10-31T12:18:19;5.47;;;1.10;;
3995;SDS011;2012;49.794;9.722;2023-10-31T12:20:49;2.03;;;0.90;;
3995;SDS011;2012;49.794;9.722;2023-10-31T12:23:17;7.13;;;1.80;;
3995;SDS011;2012;49.794;9.722;2023-10-31T12:25:48;4.23;;;1.13;;
3995;SDS011;2012;49.794;9.722;2023-10-31T12:28:19;1.13;;;1.00;;
3995;SDS011;2012;49.794;9.722;2023-10-31T12:30:53;2.60;;;1.10;;
3995;SDS011;2012;49.794;9.722;2023-10-31T12:33:21;3.23;;;1.70;;
3995;SDS011;2012;49.794;9.722;2023-10-31T12:36:00;4.40;;;2.00;;
3995;SDS011;2012;49.794;9.722;2023-10-31T12:38:28;11.27;;;4.10;;
3995;SDS011;2012;49.794;9.722;2023-10-31T12:40:56;7.40;;;3.10;;
3995;SDS011;2012;49.794;9.722;2023-10-31T12:43:23;2.13;;;1.00;;
3995;SDS011;2012;49.794;9.722;2023-10-31T12:45:51;4.90;;;1.27;;
3995;SDS011;2012;49.794;9.722;2023-10-31T12:48:23;4.07;;;1.30;;
3995;SDS011;2012;49.794;9.722;2023-10-31T12:50:55;5.90;;;1.20;;
3995;SDS011;2012;49.794;9.722;2023-10-31T12:53:34;2.17;;;1.00;;
3995;SDS011;2012;49.794;9.722;2023-10-31T12:56:02;1.87;;;0.90;;
3995;SDS011;2012;49.794;9.722;2023-10-31T12:58:30;5.67;;;1.10;;
3995;SDS011;2012;49.794;9.722;2023-10-31T13:00:57;4.50;;;1.00;;
3995;SDS011;2012;49.794;9.722;2023-10-31T13:03:23;3.03;;;1.20;;
3995;SDS011;2012;49.794;9.722;2023-10-31T13:05:51;8.23;;;1.30;;
3995;SDS011;2012;49.794;9.722;2023-10-31T13:08:17;4.60;;;1.03;;
3995;SDS011;2012;49.794;9.722;2023-10-31T13:10:44;1.73;;;1.00;;
3995;SDS011;2012;49.794;9.722;2023-10-31T13:13:11;8.30;;;1.40;;
3995;SDS011;2012;49.794;9.722;2023-10-31T13:15:39;14.40;;;1.40;;
3995;SDS011;2012;49.794;9.722;2023-10-31T13:18:06;8.33;;;1.10;;
3995;SDS011;2012;49.794;9.722;2023-10-31T13:20:33;1.47;;;0.87;;
3995;SDS011;2012;49.794;9.722;2023-10-31T13:23:00;6.30;;;0.90;;
3995;SDS011;2012;49.794;9.722;2023-10-31T13:25:29;1.50;;;0.90;;
3995;SDS011;2012;49.794;9.722;2023-10-31T13:27:58;2.93;;;0.90;;
3995;SDS011;2012;49.794;9.722;2023-10-31T13:30:25;6.00;;;1.17;;
3995;SDS011;2012;49.794;9.722;2023-10-31T13:32:52;6.23;;;1.23;;
3995;SDS011;2012;49.794;9.722;2023-10-31T13:35:19;7.97;;;1.30;;
3995;SDS011;2012;49.794;9.722;2023-10-31T13:37:47;5.27;;;1.17;;
3995;SDS011;2012;49.794;9.722;2023-10-31T13:40:14;1.77;;;0.90;;
3995;SDS011;2012;49.794;9.722;2023-10-31T13:42:41;4.87;;;1.07;;
3995;SDS011;2012;49.794;9.722;2023-10-31T13:45:08;3.50;;;0.93;;
3995;SDS011;2012;49.794;9.722;2023-10-31T13:47:38;2.20;;;0.90;;
3995;SDS011;2012;49.794;9.722;2023-10-31T13:50:05;1.77;;;0.90;;
3995;SDS011;2012;49.794;9.722;2023-10-31T13:52:34;2.87;;;1.10;;
3995;SDS011;2012;49.794;9.722;2023-10-31T13:55:01;5.20;;;1.40;;
3995;SDS011;2012;49.794;9.722;2023-10-31T13:57:28;2.00;;;1.10;;
3995;SDS011;2012;49.794;9.722;2023-10-31T13:59:54;3.73;;;1.50;;
3995;SDS011;2012;49.794;9.722;2023-10-31T14:02:21;5.40;;;1.20;;
3995;SDS011;2012;49.794;9.722;2023-10-31T14:04:48;2.10;;;1.10;;
3995;SDS011;2012;49.794;9.722;2023-10-31T14:07:20;4.30;;;1.33;;
3995;SDS011;2012;49.794;9.722;2023-10-31T14:09:51;5.77;;;1.20;;
3995;SDS011;2012;49.794;9.722;2023-10-31T14:12:19;13.97;;;1.50;;
3995;SDS011;2012;49.794;9.722;2023-10-31T14:14:46;7.43;;;1.30;;
3995;SDS011;2012;49.794;9.722;2023-10-31T14:17:15;6.83;;;1.77;;
3995;SDS011;2012;49.794;9.722;2023-10-31T14:19:43;3.63;;;1.50;;
3995;SDS011;2012;49.794;9.722;2023-10-31T14:22:13;5.27;;;1.40;;
3995;SDS011;2012;49.794;9.722;2023-10-31T14:24:40;1.93;;;1.10;;
3995;SDS011;2012;49.794;9.722;2023-10-31T14:27:07;2.37;;;1.13;;
3995;SDS011;2012;49.794;9.722;2023-10-31T14:29:35;2.90;;;1.40;;
3995;SDS011;2012;49.794;9.722;2023-10-31T14:32:08;2.10;;;1.20;;
3995;SDS011;2012;49.794;9.722;2023-10-31T14:34:35;2.17;;;1.00;;
3995;SDS011;2012;49.794;9.722;2023-10-31T14:37:02;4.80;;;1.30;;
3995;SDS011;2012;49.794;9.722;2023-10-31T14:39:30;2.47;;;1.20;;
3995;SDS011;2012;49.794;9.722;2023-10-31T14:41:57;3.50;;;1.70;;
3995;SDS011;2012;49.794;9.722;2023-10-31T14:44:24;5.90;;;2.80;;
3995;SDS011;2012;49.794;9.722;2023-10-31T14:46:51;8.33;;;2.90;;
3995;SDS011;2012;49.794;9.722;2023-10-31T14:49:17;11.30;;;6.33;;
3995;SDS011;2012;49.794;9.722;2023-10-31T14:51:45;5.37;;;2.57;;
3995;SDS011;2012;49.794;9.722;2023-10-31T14:54:11;4.60;;;1.63;;
3995;SDS011;2012;49.794;9.722;2023-10-31T14:56:38;5.07;;;1.80;;
3995;SDS011;2012;49.794;9.722;2023-10-31T14:59:06;3.90;;;1.20;;
3995;SDS011;2012;49.794;9.722;2023-10-31T15:01:34;2.73;;;1.57;;
3995;SDS011;2012;49.794;9.722;2023-10-31T15:04:01;6.00;;;1.53;;
3995;SDS011;2012;49.794;9.722;2023-10-31T15:06:28;5.70;;;1.70;;
3995;SDS011;2012;49.794;9.722;2023-10-31T15:08:55;3.80;;;1.27;;
3995;SDS011;2012;49.794;9.722;2023-10-31T15:11:21;3.43;;;0.90;;
3995;SDS011;2012;49.794;9.722;2023-10-31T15:13:49;6.93;;;1.50;;
3995;SDS011;2012;49.794;9.722;2023-10-31T15:16:16;4.80;;;1.67;;
3995;SDS011;2012;49.794;9.722;2023-10-31T15:18:43;3.60;;;1.10;;
3995;SDS011;2012;49.794;9.722;2023-10-31T15:21:11;3.87;;;1.57;;
3995;SDS011;2012;49.794;9.722;2023-10-31T15:23:38;10.83;;;2.50;;
3995;SDS011;2012;49.794;9.722;2023-10-31T15:26:05;3.40;;;1.50;;
3995;SDS011;2012;49.794;9.722;2023-10-31T15:28:35;2.80;;;1.00;;
3995;SDS011;2012;49.794;9.722;2023-10-31T15:31:03;8.70;;;1.17;;